createdAt,value
2022-11-27T00:01:36.071Z,63.78
2022-11-27T00:04:04.081Z,63.85
2022-11-27T00:06:32.525Z,59.08
2022-11-27T00:09:08.134Z,62.63
2022-11-27T00:11:41.668Z,61.55
2022-11-27T00:14:14.670Z,60.42
2022-11-27T00:19:11.456Z,60.13
2022-11-27T00:21:39.058Z,57.28
2022-11-27T00:24:08.207Z,58.28
2022-11-27T00:26:38.023Z,58.30
2022-11-27T00:29:06.237Z,59.97
2022-11-27T00:31:37.378Z,62.65
2022-11-27T00:34:08.454Z,59.80
2022-11-27T00:36:37.268Z,58.17
2022-11-27T00:39:05.449Z,60.45
2022-11-27T00:41:33.057Z,59.08
2022-11-27T00:44:00.039Z,59.83
2022-11-27T00:46:33.803Z,55.95
2022-11-27T00:49:04.266Z,60.92
2022-11-27T00:51:31.575Z,64.53
2022-11-27T00:53:59.367Z,58.25
2022-11-27T00:56:31.323Z,60.65
2022-11-27T00:58:58.849Z,46.60
2022-11-27T01:01:41.883Z,60.95
2022-11-27T01:06:40.356Z,61.28
2022-11-27T01:09:07.788Z,62.20
2022-11-27T01:11:36.418Z,56.63
2022-11-27T01:14:08.002Z,60.20
2022-11-27T01:16:35.383Z,65.53
2022-11-27T01:19:03.406Z,60.50
2022-11-27T01:21:37.726Z,60.70
2022-11-27T01:24:05.885Z,58.63
2022-11-27T01:26:33.064Z,58.47
2022-11-27T01:29:00.382Z,60.22
2022-11-27T01:31:31.481Z,58.97
2022-11-27T01:34:06.244Z,60.15
2022-11-27T01:36:35.707Z,66.15
2022-11-27T01:39:03.606Z,56.65
2022-11-27T01:41:39.889Z,57.25
2022-11-27T01:44:25.008Z,60.78
2022-11-27T01:47:11.859Z,59.15
2022-11-27T01:49:48.885Z,56.03
2022-11-27T01:52:39.974Z,58.50
2022-11-27T01:55:21.963Z,57.92
2022-11-27T01:57:56.503Z,60.05
2022-11-27T02:00:25.847Z,59.75
2022-11-27T02:02:55.711Z,60.13
2022-11-27T02:05:25.787Z,60.97
2022-11-27T02:07:53.775Z,64.18
2022-11-27T02:10:22.970Z,61.85
2022-11-27T02:13:17.091Z,66.43
2022-11-27T02:15:57.706Z,63.40
2022-11-27T02:18:31.921Z,65.13
2022-11-27T02:21:16.260Z,68.80
2022-11-27T02:24:41.527Z,64.20
2022-11-27T02:27:52.068Z,67.95
2022-11-27T02:30:19.740Z,62.13
2022-11-27T02:32:54.767Z,68.18
2022-11-27T02:35:41.461Z,72.70
2022-11-27T02:38:15.325Z,69.53
2022-11-27T02:41:01.537Z,72.13
2022-11-27T02:43:38.403Z,70.20
2022-11-27T02:46:09.752Z,74.13
2022-11-27T02:48:45.618Z,72.80
2022-11-27T02:51:16.984Z,79.47
2022-11-27T02:53:51.843Z,69.88
2022-11-27T02:56:24.642Z,69.68
2022-11-27T02:58:56.984Z,70.65
2022-11-27T03:01:27.641Z,76.35
2022-11-27T03:03:59.951Z,70.05
2022-11-27T03:06:44.169Z,54.22
2022-11-27T03:09:19.923Z,67.75
2022-11-27T03:11:48.879Z,65.28
2022-11-27T03:14:17.194Z,62.22
2022-11-27T03:17:05.985Z,72.20
2022-11-27T03:19:50.802Z,63.25
2022-11-27T03:22:17.907Z,62.22
2022-11-27T03:24:45.252Z,56.92
2022-11-27T03:27:21.801Z,58.67
2022-11-27T03:30:07.470Z,64.38
2022-11-27T03:32:34.979Z,61.53
2022-11-27T03:35:02.358Z,57.33
2022-11-27T03:37:29.329Z,57.97
2022-11-27T03:39:56.581Z,54.15
2022-11-27T03:42:52.033Z,54.05
2022-11-27T03:46:19.450Z,55.53
2022-11-27T03:49:05.152Z,57.90
2022-11-27T03:51:46.440Z,59.30
2022-11-27T03:54:46.658Z,56.58
2022-11-27T03:57:28.872Z,52.70
2022-11-27T04:00:01.849Z,53.58
2022-11-27T04:05:13.934Z,50.45
2022-11-27T04:07:41.307Z,55.38
2022-11-27T04:10:10.906Z,54.25
2022-11-27T04:12:38.602Z,50.80
2022-11-27T04:15:07.027Z,50.45
2022-11-27T04:17:34.216Z,53.08
2022-11-27T04:20:01.242Z,49.50
2022-11-27T04:22:28.172Z,52.13
2022-11-27T04:24:55.120Z,49.28
2022-11-27T04:27:22.107Z,52.83
2022-11-27T04:29:49.135Z,51.10
2022-11-27T04:32:17.453Z,42.90
2022-11-27T04:34:44.424Z,46.15
2022-11-27T04:37:11.446Z,47.70
2022-11-27T04:39:38.347Z,44.88
2022-11-27T04:42:05.327Z,47.35
2022-11-27T04:44:32.214Z,45.65
2022-11-27T04:46:59.197Z,49.78
2022-11-27T04:49:26.342Z,46.95
2022-11-27T04:51:53.256Z,48.83
2022-11-27T04:54:20.193Z,47.38
2022-11-27T04:56:47.107Z,47.85
2022-11-27T04:59:14.040Z,53.88
2022-11-27T05:01:40.951Z,50.95
2022-11-27T05:04:07.878Z,52.78
2022-11-27T05:06:34.967Z,55.22
2022-11-27T05:09:02.304Z,52.75
2022-11-27T05:11:31.422Z,55.85
2022-11-27T05:14:18.071Z,56.13
2022-11-27T05:16:51.620Z,62.45
2022-11-27T05:19:22.515Z,64.03
2022-11-27T05:21:51.335Z,61.20
2022-11-27T05:24:22.188Z,60.25
2022-11-27T05:26:49.691Z,65.07
2022-11-27T05:29:17.752Z,63.78
2022-11-27T05:31:45.158Z,59.20
2022-11-27T05:34:12.295Z,60.67
2022-11-27T05:36:39.803Z,65.43
2022-11-27T05:39:08.564Z,59.33
2022-11-27T05:41:37.617Z,67.45
2022-11-27T05:44:05.613Z,61.33
2022-11-27T05:46:33.264Z,64.50
2022-11-27T05:49:00.263Z,63.78
2022-11-27T05:51:27.181Z,65.13
2022-11-27T05:53:54.277Z,66.88
2022-11-27T05:56:21.207Z,62.22
2022-11-27T05:58:48.627Z,62.05
2022-11-27T06:01:18.436Z,64.05
2022-11-27T06:03:45.764Z,64.13
2022-11-27T06:06:19.220Z,60.83
2022-11-27T06:08:47.769Z,64.72
2022-11-27T06:11:20.882Z,70.88
2022-11-27T06:13:49.754Z,64.70
2022-11-27T06:16:23.271Z,70.70
2022-11-27T06:18:53.077Z,71.40
2022-11-27T06:21:21.914Z,70.00
2022-11-27T06:23:49.774Z,73.65
2022-11-27T06:26:27.147Z,63.78
2022-11-27T06:28:55.975Z,70.63
2022-11-27T06:31:29.792Z,68.28
2022-11-27T06:33:57.561Z,71.13
2022-11-27T06:36:38.346Z,70.75
2022-11-27T06:39:07.133Z,69.38
2022-11-27T06:41:34.296Z,77.10
2022-11-27T06:44:02.336Z,68.22
2022-11-27T06:46:30.246Z,66.30
2022-11-27T06:48:59.279Z,72.30
2022-11-27T06:51:29.249Z,70.72
2022-11-27T06:53:56.822Z,65.00
2022-11-27T06:56:26.858Z,67.43
2022-11-27T06:58:56.690Z,65.15
2022-11-27T07:01:26.771Z,70.18
2022-11-27T07:03:53.855Z,63.63
2022-11-27T07:06:26.809Z,65.65
2022-11-27T07:11:25.778Z,66.05
2022-11-27T07:13:57.048Z,63.58
2022-11-27T07:16:25.147Z,68.55
2022-11-27T07:18:57.559Z,67.85
2022-11-27T07:21:25.318Z,68.40
2022-11-27T07:23:52.396Z,70.15
2022-11-27T07:26:25.724Z,67.65
2022-11-27T07:28:53.609Z,67.82
2022-11-27T07:31:28.870Z,67.15
2022-11-27T07:33:56.403Z,73.30
2022-11-27T07:36:30.085Z,70.03
2022-11-27T07:52:10.359Z,73.15
2022-11-27T07:54:40.126Z,67.72
2022-11-27T07:57:07.311Z,60.80
2022-11-27T07:59:34.294Z,62.97
2022-11-27T08:02:01.234Z,67.45
2022-11-27T08:04:28.250Z,67.32
2022-11-27T08:06:57.407Z,61.22
2022-11-27T08:09:24.373Z,67.97
2022-11-27T08:11:51.313Z,58.75
2022-11-27T08:14:19.283Z,64.72
2022-11-27T08:16:46.290Z,66.80
2022-11-27T08:19:14.031Z,62.70
2022-11-27T08:21:40.979Z,62.40
2022-11-27T08:24:09.234Z,62.55
2022-11-27T08:26:36.217Z,59.90
2022-11-27T08:29:03.602Z,63.38
2022-11-27T08:31:30.612Z,62.20
2022-11-27T08:33:57.626Z,67.07
2022-11-27T08:36:28.391Z,64.75
2022-11-27T08:38:56.300Z,78.88
2022-11-27T08:41:23.304Z,70.13
2022-11-27T08:43:50.287Z,72.95
2022-11-27T08:46:17.351Z,68.72
2022-11-27T08:48:44.357Z,69.43
2022-11-27T08:51:15.498Z,69.57
2022-11-27T08:53:45.954Z,67.28
2022-11-27T08:56:25.121Z,67.28
2022-11-27T08:58:52.692Z,63.08
2022-11-27T09:01:27.405Z,61.17
2022-11-27T09:03:55.227Z,63.00
2022-11-27T09:06:31.792Z,60.08
2022-11-27T09:09:01.654Z,65.25
2022-11-27T09:11:31.110Z,65.43
2022-11-27T09:14:00.338Z,59.45
2022-11-27T09:16:29.079Z,64.45
2022-11-27T09:18:57.036Z,59.78
2022-11-27T09:21:33.199Z,59.78
2022-11-27T09:24:01.958Z,63.78
2022-11-27T09:26:29.986Z,60.25
2022-11-27T09:28:59.147Z,63.90
2022-11-27T09:31:27.340Z,65.38
2022-11-27T09:33:54.324Z,65.60
2022-11-27T09:36:25.266Z,65.63
2022-11-27T09:38:53.370Z,64.03
2022-11-27T09:41:38.681Z,64.78
2022-11-27T09:44:32.827Z,61.85
2022-11-27T09:47:26.982Z,62.05
2022-11-27T09:50:18.920Z,63.38
2022-11-27T09:52:51.617Z,67.45
2022-11-27T09:55:41.607Z,66.03
2022-11-27T09:58:23.655Z,69.32
2022-11-27T10:00:50.567Z,63.45
2022-11-27T10:03:29.136Z,65.40
2022-11-27T10:06:36.923Z,59.78
2022-11-27T10:09:06.909Z,65.93
2022-11-27T10:12:08.994Z,64.25
2022-11-27T10:15:00.880Z,61.55
2022-11-27T10:17:52.663Z,64.93
2022-11-27T10:20:44.833Z,58.15
2022-11-27T10:23:33.066Z,69.03
2022-11-27T10:26:19.048Z,60.60
2022-11-27T10:29:11.494Z,60.58
2022-11-27T10:32:01.969Z,58.55
2022-11-27T10:34:41.168Z,56.67
2022-11-27T10:37:33.537Z,50.65
2022-11-27T10:40:08.490Z,51.65
2022-11-27T10:43:10.444Z,54.63
2022-11-27T10:45:52.992Z,53.47
2022-11-27T10:48:21.195Z,55.17
2022-11-27T10:50:49.093Z,56.60
2022-11-27T10:53:35.372Z,56.75
2022-11-27T10:56:17.394Z,53.83
2022-11-27T10:59:05.976Z,54.72
2022-11-27T11:02:05.528Z,51.38
2022-11-27T11:04:40.201Z,51.95
2022-11-27T11:07:29.590Z,55.72
2022-11-27T11:09:57.002Z,54.50
2022-11-27T11:12:24.497Z,55.97
2022-11-27T11:15:01.685Z,51.33
2022-11-27T11:17:40.796Z,53.97
2022-11-27T11:20:22.914Z,51.33
2022-11-27T11:22:50.982Z,53.45
2022-11-27T11:25:22.221Z,54.17
2022-11-27T11:27:51.723Z,50.33
2022-11-27T11:30:24.398Z,50.90
2022-11-27T11:32:59.886Z,52.90
2022-11-27T11:35:35.993Z,47.28
2022-11-27T11:38:19.537Z,48.42
2022-11-27T11:41:03.528Z,47.50
2022-11-27T11:43:35.564Z,50.42
2022-11-27T11:46:29.965Z,48.05
2022-11-27T11:49:08.470Z,47.75
2022-11-27T11:52:22.128Z,51.38
2022-11-27T11:55:03.798Z,46.83
2022-11-27T11:57:43.045Z,49.30
2022-11-27T12:00:16.953Z,53.55
2022-11-27T12:03:15.583Z,45.92
2022-11-27T12:06:21.423Z,56.92
2022-11-27T12:09:20.995Z,50.40
2022-11-27T12:12:22.707Z,50.40
2022-11-27T12:15:23.296Z,47.92
2022-11-27T12:18:18.902Z,52.67
2022-11-27T12:21:04.397Z,49.58
2022-11-27T12:23:46.142Z,50.60
2022-11-27T12:26:53.162Z,46.40
2022-11-27T12:29:52.382Z,42.65
2022-11-27T12:32:42.275Z,43.97
2022-11-27T12:35:50.563Z,45.55
2022-11-27T12:38:50.055Z,43.90
2022-11-27T12:41:32.483Z,48.63
2022-11-27T12:44:00.324Z,44.17
2022-11-27T12:46:43.414Z,44.45
2022-11-27T12:49:27.870Z,44.00
2022-11-27T12:52:28.210Z,46.13
2022-11-27T12:55:33.477Z,41.28
2022-11-27T12:58:12.763Z,44.55
2022-11-27T13:00:43.677Z,47.78
2022-11-27T13:03:31.220Z,46.88
2022-11-27T13:06:23.883Z,44.92
2022-11-27T13:09:01.773Z,50.10
2022-11-27T13:11:41.684Z,44.63
2022-11-27T13:14:22.028Z,46.05
2022-11-27T13:17:03.044Z,50.10
2022-11-27T13:19:51.538Z,52.28
2022-11-27T13:22:32.599Z,53.88
2022-11-27T13:25:02.744Z,57.90
2022-11-27T13:27:38.220Z,56.70
2022-11-27T13:30:16.940Z,61.47
2022-11-27T13:32:58.021Z,72.15
2022-11-27T13:35:42.639Z,76.90
2022-11-27T13:38:14.184Z,67.82
2022-11-27T13:40:52.062Z,67.68
2022-11-27T13:43:43.539Z,69.18
2022-11-27T13:46:25.002Z,68.18
2022-11-27T13:49:03.127Z,69.50
2022-11-27T13:51:37.565Z,70.32
2022-11-27T13:54:15.840Z,89.00
2022-11-27T13:56:43.315Z,86.68
2022-11-27T13:59:40.004Z,73.45
2022-11-27T14:02:09.154Z,69.65
2022-11-27T14:04:54.356Z,68.05
2022-11-27T14:07:35.052Z,71.47
2022-11-27T14:10:14.881Z,74.05
2022-11-27T14:12:53.492Z,72.07
2022-11-27T14:15:26.870Z,73.65
2022-11-27T14:18:09.453Z,72.15
2022-11-27T14:20:50.109Z,73.13
2022-11-27T14:23:48.736Z,75.38
2022-11-27T14:26:15.868Z,77.00
2022-11-27T14:28:48.817Z,71.60
2022-11-27T14:31:35.631Z,74.57
2022-11-27T14:34:23.110Z,73.55
2022-11-27T14:36:53.033Z,76.05
2022-11-27T14:39:34.324Z,81.40
2022-11-27T14:42:08.080Z,80.35
2022-11-27T14:44:35.571Z,82.50
2022-11-27T14:47:07.322Z,79.63
2022-11-27T14:49:35.312Z,87.75
2022-11-27T14:52:08.295Z,95.80
2022-11-27T14:57:06.948Z,82.65
2022-11-27T14:59:34.096Z,81.38
2022-11-27T15:02:17.410Z,81.55
2022-11-27T15:04:48.200Z,74.35
2022-11-27T15:07:25.142Z,77.85
2022-11-27T15:09:57.381Z,79.82
2022-11-27T15:12:34.108Z,86.63
2022-11-27T15:15:26.191Z,122.25
2022-11-27T15:18:02.113Z,103.03
2022-11-27T15:20:44.966Z,98.07
2022-11-27T15:23:28.627Z,82.80
2022-11-27T15:26:15.822Z,80.78
2022-11-27T15:28:57.350Z,85.03
2022-11-27T15:31:32.682Z,138.85
2022-11-27T15:34:20.716Z,133.43
2022-11-27T15:37:03.650Z,127.75
2022-11-27T15:39:52.098Z,135.32
2022-11-27T15:42:20.611Z,113.80
2022-11-27T15:44:50.007Z,101.20
2022-11-27T15:47:37.747Z,89.85
2022-11-27T15:50:07.392Z,160.07
2022-11-27T15:52:34.552Z,220.70
2022-11-27T15:55:01.552Z,403.25
2022-11-27T15:57:28.515Z,247.10
2022-11-27T15:59:55.440Z,144.63
2022-11-27T16:02:23.222Z,108.93
2022-11-27T16:04:52.953Z,125.93
2022-11-27T16:07:19.928Z,103.45
2022-11-27T16:09:47.835Z,86.60
2022-11-27T16:12:14.722Z,85.75
2022-11-27T16:14:41.978Z,74.88
2022-11-27T16:17:09.156Z,79.38
2022-11-27T16:19:36.107Z,94.80
2022-11-27T16:22:03.123Z,119.00
2022-11-27T16:24:30.158Z,126.22
2022-11-27T16:26:57.197Z,126.30
2022-11-27T16:29:24.213Z,167.40
2022-11-27T16:44:27.459Z,93.07
2022-11-27T16:46:54.439Z,96.65
2022-11-27T16:49:21.850Z,84.82
2022-11-27T16:51:48.869Z,71.28
2022-11-27T16:54:15.802Z,79.82
2022-11-27T16:56:43.504Z,86.00
2022-11-27T16:59:14.078Z,123.50
2022-11-27T17:01:42.385Z,126.30
2022-11-27T17:04:18.469Z,151.73
2022-11-27T17:06:47.548Z,119.35
2022-11-27T17:09:15.395Z,183.93
2022-11-27T17:11:48.416Z,205.65
2022-11-27T17:14:16.276Z,149.80
2022-11-27T17:16:43.713Z,153.68
2022-11-27T17:19:15.867Z,166.68
2022-11-27T17:21:43.138Z,126.07
2022-11-27T17:24:16.308Z,225.82
2022-11-27T17:26:45.457Z,241.77
2022-11-27T17:29:16.587Z,214.25
2022-11-27T17:31:44.057Z,200.55
2022-11-27T17:34:15.867Z,187.88
2022-11-27T17:36:45.005Z,170.10
2022-11-27T17:39:14.349Z,211.57
2022-11-27T17:41:44.228Z,210.80
2022-11-27T17:44:12.240Z,173.55
2022-11-27T17:46:40.080Z,188.48
2022-11-27T17:49:08.224Z,255.52
2022-11-27T17:51:36.305Z,192.38
2022-11-27T17:54:05.406Z,148.65
2022-11-27T17:56:34.432Z,143.50
2022-11-27T17:59:01.976Z,107.72
2022-11-27T18:01:30.868Z,93.45
2022-11-27T18:04:01.025Z,70.45
2022-11-27T18:06:28.176Z,80.97
2022-11-27T18:08:57.356Z,82.30
2022-11-27T18:11:28.125Z,100.70
2022-11-27T18:13:55.468Z,72.43
2022-11-27T18:16:33.549Z,73.05
2022-11-27T18:19:06.337Z,97.38
2022-11-27T18:21:34.611Z,117.63
2022-11-27T18:29:42.256Z,121.45
2022-11-27T18:32:11.962Z,111.13
2022-11-27T18:34:40.031Z,77.72
2022-11-27T18:37:08.549Z,72.88
2022-11-27T18:39:36.886Z,80.50
2022-11-27T18:42:05.825Z,122.20
2022-11-27T18:44:37.337Z,118.50
2022-11-27T18:47:10.232Z,100.13
2022-11-27T18:49:41.330Z,89.40
2022-11-27T18:52:09.672Z,106.72
2022-11-27T18:54:37.533Z,81.70
2022-11-27T18:57:07.009Z,121.57
2022-11-27T18:59:34.957Z,106.05
2022-11-27T19:02:02.264Z,119.13
2022-11-27T19:04:29.263Z,124.10
2022-11-27T19:06:56.362Z,107.43
2022-11-27T19:09:24.115Z,96.63
2022-11-27T19:11:51.056Z,98.35
2022-11-27T19:14:17.991Z,88.40
2022-11-27T19:16:46.959Z,98.75
2022-11-27T19:22:07.242Z,93.22
2022-11-27T19:24:34.326Z,86.22
2022-11-27T19:27:01.439Z,108.60
2022-11-27T19:29:28.406Z,130.73
2022-11-27T19:31:57.794Z,117.95
2022-11-27T19:34:24.803Z,154.60
2022-11-27T19:36:51.783Z,174.13
2022-11-27T19:39:19.103Z,191.93
2022-11-27T19:41:46.160Z,159.98
2022-11-27T19:44:13.886Z,153.45
2022-11-27T19:46:41.253Z,104.95
2022-11-27T19:49:14.692Z,120.32
2022-11-27T19:51:41.779Z,121.90
2022-11-27T19:54:12.735Z,105.53
2022-11-27T19:56:42.236Z,111.70
2022-11-27T19:59:10.732Z,91.55
2022-11-27T20:01:40.831Z,106.53
2022-11-27T20:04:15.080Z,101.85
2022-11-27T20:06:42.212Z,87.78
2022-11-27T20:09:10.469Z,83.47
2022-11-27T20:11:38.165Z,80.57
2022-11-27T20:14:06.534Z,94.90
2022-11-27T20:16:37.624Z,86.53
2022-11-27T20:19:07.179Z,97.68
2022-11-27T20:21:34.635Z,90.75
2022-11-27T20:24:02.575Z,87.70
2022-11-27T20:26:30.563Z,69.32
2022-11-27T20:28:58.514Z,71.22
2022-11-27T20:31:32.136Z,72.20
2022-11-27T20:34:03.939Z,83.07
2022-11-27T20:36:34.118Z,93.72
2022-11-27T20:39:01.777Z,139.88
2022-11-27T20:41:29.522Z,192.68
2022-11-27T20:44:02.263Z,141.23
2022-11-27T20:46:29.384Z,132.00
2022-11-27T20:48:57.834Z,114.35
2022-11-27T20:51:30.750Z,98.78
2022-11-27T20:56:27.600Z,138.27
2022-11-27T20:58:55.191Z,154.93
2022-11-27T21:01:36.146Z,141.23
2022-11-27T21:04:09.564Z,96.07
2022-11-27T21:06:43.494Z,95.53
2022-11-27T21:09:13.662Z,78.03
2022-11-27T21:11:42.135Z,82.75
2022-11-27T21:14:12.192Z,92.90
2022-11-27T21:16:49.143Z,127.05
2022-11-27T21:19:21.787Z,90.53
2022-11-27T21:21:50.233Z,97.03
2022-11-27T21:24:19.006Z,155.45
2022-11-27T21:26:47.163Z,107.47
2022-11-27T21:29:15.525Z,218.25
2022-11-27T21:31:46.739Z,186.43
2022-11-27T21:34:15.036Z,114.80
2022-11-27T21:36:41.985Z,106.80
2022-11-27T21:39:12.635Z,157.93
2022-11-27T21:41:39.776Z,123.85
2022-11-27T21:44:06.987Z,196.07
2022-11-27T21:46:34.908Z,323.20
2022-11-27T21:49:02.081Z,130.40
2022-11-27T21:51:30.427Z,178.63
2022-11-27T21:53:59.007Z,214.52
2022-11-27T21:56:29.126Z,345.50
2022-11-27T21:58:56.312Z,242.73
2022-11-27T22:01:25.646Z,212.65
2022-11-27T22:03:54.757Z,133.65
2022-11-27T22:06:24.632Z,132.68
2022-11-27T22:08:53.887Z,156.68
2022-11-27T22:11:26.775Z,79.72
2022-11-27T22:14:13.295Z,82.78
2022-11-27T22:16:45.249Z,78.90
2022-11-27T22:19:14.377Z,101.80
2022-11-27T22:21:42.013Z,117.22
2022-11-27T22:24:16.509Z,231.35
2022-11-27T22:26:45.850Z,171.55
2022-11-27T22:29:12.792Z,211.27
2022-11-27T22:31:39.874Z,126.60
2022-11-27T22:46:22.490Z,378.42
2022-11-27T22:49:00.170Z,360.70
2022-11-27T22:51:30.436Z,356.60
2022-11-27T22:53:57.765Z,293.98
2022-11-27T22:56:25.840Z,288.65
2022-11-27T22:59:11.242Z,293.42
2022-11-27T23:01:40.962Z,294.08
2022-11-27T23:04:08.288Z,147.60
2022-11-27T23:06:35.839Z,293.55
2022-11-27T23:09:03.052Z,319.17
2022-11-27T23:11:30.537Z,300.88
2022-11-27T23:14:00.979Z,428.60
2022-11-27T23:16:27.931Z,310.67
2022-11-27T23:18:54.889Z,343.40
2022-11-27T23:21:24.523Z,263.60
2022-11-27T23:23:51.884Z,346.90
2022-11-27T23:26:23.092Z,272.13
2022-11-27T23:28:53.680Z,367.85
2022-11-27T23:31:32.406Z,310.92
2022-11-27T23:34:02.307Z,271.10
2022-11-27T23:36:31.571Z,220.50
2022-11-27T23:39:05.338Z,343.52
2022-11-27T23:41:32.765Z,347.30
2022-11-27T23:44:01.453Z,387.02
2022-11-27T23:46:30.337Z,292.88
2022-11-27T23:49:00.089Z,225.50
2022-11-27T23:51:31.720Z,233.18
2022-11-27T23:54:00.114Z,332.02
2022-11-27T23:56:30.645Z,308.40
2022-11-27T23:58:59.398Z,321.48
